Time;durP1;ratioP1;P1;durP2;ratioP2;P2;SDS_P1;SDS_P2;PMS_P1;PMS_P2;Temp;Humidity;BMP_temperature;BMP_pressure;BME280_temperature;BME280_humidity;BME280_pressure;Samples;Min_cycle;Max_cycle;Signal;HPM_P1;HPM_P2
2024/01/25 00:00:23;;;;;;;29.20;3.97;;;;;;;5.91;100.00;101834.84;4946074;28;20031;-75
2024/01/25 00:02:48;;;;;;;43.50;6.53;;;;;;;5.92;100.00;101836.47;4944159;28;20054;-77
2024/01/25 00:05:14;;;;;;;33.75;5.88;;;;;;;5.87;100.00;101833.59;4926754;28;20489;-80
2024/01/25 00:07:49;;;;;;;28.38;4.68;;;;;;;5.81;100.00;101842.41;4931514;28;20130;-80
2024/01/25 00:10:19;;;;;;;25.98;4.10;;;;;;;5.77;100.00;101843.88;4920324;28;20994;-81
2024/01/25 00:12:44;;;;;;;25.88;3.90;;;;;;;5.79;100.00;101820.53;4915987;29;20031;-81
2024/01/25 00:15:11;;;;;;;28.80;4.60;;;;;;;5.79;100.00;101826.66;4944731;28;20110;-82
2024/01/25 00:17:37;;;;;;;25.40;4.07;;;;;;;5.79;100.00;101818.69;4945542;28;20422;-79
2024/01/25 00:20:04;;;;;;;29.35;4.07;;;;;;;5.77;100.00;101811.97;4927350;28;20050;-80
2024/01/25 00:22:29;;;;;;;34.22;5.05;;;;;;;5.76;100.00;101805.84;4949621;28;20122;-78
2024/01/25 00:24:55;;;;;;;30.85;3.65;;;;;;;5.74;100.00;101814.00;4948463;28;20622;-80
2024/01/25 00:27:21;;;;;;;24.27;3.80;;;;;;;5.71;100.00;101806.47;4948824;28;20030;-81
2024/01/25 00:29:47;;;;;;;32.72;4.20;;;;;;;5.72;100.00;101797.44;4945609;28;20039;-78
2024/01/25 00:32:13;;;;;;;24.02;3.92;;;;;;;5.72;100.00;101821.38;4952205;28;20441;-79
2024/01/25 00:34:38;;;;;;;27.20;4.55;;;;;;;5.70;100.00;101818.13;4947730;28;20078;-81
2024/01/25 00:37:04;;;;;;;31.63;4.85;;;;;;;5.72;100.00;101826.69;4934156;28;20039;-80
2024/01/25 00:39:30;;;;;;;28.25;5.18;;;;;;;5.69;100.00;101819.16;4941599;28;20043;-80
2024/01/25 00:42:06;;;;;;;34.85;4.45;;;;;;;5.72;100.00;101829.34;4916425;29;20046;-81
2024/01/25 00:44:33;;;;;;;28.73;5.18;;;;;;;5.67;100.00;101838.97;4948178;28;20120;-79
2024/01/25 00:46:59;;;;;;;31.10;5.00;;;;;;;5.69;100.00;101848.38;4947359;28;20505;-78
2024/01/25 00:49:25;;;;;;;25.20;4.15;;;;;;;5.62;100.00;101841.44;4942124;28;20170;-81
2024/01/25 00:51:59;;;;;;;28.25;4.78;;;;;;;5.62;100.00;101836.97;4945674;28;20027;-79
2024/01/25 00:54:25;;;;;;;29.23;4.30;;;;;;;5.64;100.00;101856.16;4950150;28;20046;-79
2024/01/25 00:56:52;;;;;;;31.27;4.03;;;;;;;5.61;100.00;101839.81;4931772;29;20039;-79
2024/01/25 00:59:19;;;;;;;34.33;4.45;;;;;;;5.65;100.00;101849.81;4944892;28;20046;-79
2024/01/25 01:01:47;;;;;;;33.88;4.95;;;;;;;5.65;100.00;101843.69;4932904;29;20067;-79
2024/01/25 01:04:17;;;;;;;33.10;4.43;;;;;;;5.63;100.00;101841.25;4946022;28;20043;-77
2024/01/25 01:06:43;;;;;;;42.55;4.53;;;;;;;5.66;100.00;101838.16;4946638;28;20041;-80
2024/01/25 01:09:08;;;;;;;31.23;3.95;;;;;;;5.68;100.00;101846.72;4944327;28;20047;-79
2024/01/25 01:11:36;;;;;;;29.80;3.85;;;;;;;5.73;100.00;101838.13;4946548;28;20058;-79
2024/01/25 01:14:02;;;;;;;27.85;4.00;;;;;;;5.74;100.00;101853.88;4928589;28;20039;-79
2024/01/25 01:16:30;;;;;;;32.72;4.63;;;;;;;5.74;100.00;101847.75;4943368;28;20125;-79
2024/01/25 01:18:56;;;;;;;29.60;4.55;;;;;;;5.77;100.00;101863.28;4930631;29;20070;-77
2024/01/25 01:21:22;;;;;;;28.63;3.78;;;;;;;5.77;100.00;101854.50;4943958;28;20063;-79
2024/01/25 01:23:48;;;;;;;32.58;4.40;;;;;;;5.81;100.00;101861.81;4946106;28;20035;-80
2024/01/25 01:26:13;;;;;;;31.13;3.45;;;;;;;5.82;100.00;101863.44;4943805;28;20039;-79
2024/01/25 01:28:39;;;;;;;26.20;3.40;;;;;;;5.80;100.00;101864.69;4928883;29;20131;-80
2024/01/25 01:31:05;;;;;;;26.42;3.58;;;;;;;5.79;100.00;101865.72;4948140;28;20497;-79
2024/01/25 01:33:31;;;;;;;28.27;4.03;;;;;;;5.82;100.00;101862.63;4945407;28;20039;-80
2024/01/25 01:35:56;;;;;;;41.75;5.75;;;;;;;5.80;100.00;101856.72;4948185;28;20715;-81
2024/01/25 01:38:22;;;;;;;31.13;4.05;;;;;;;5.77;100.00;101859.81;4946416;28;20085;-78
2024/01/25 01:40:48;;;;;;;31.77;5.13;;;;;;;5.77;100.00;101849.19;4950937;28;20152;-80
2024/01/25 01:43:20;;;;;;;34.08;4.95;;;;;;;5.73;100.00;101860.22;4934988;28;20038;-80
2024/01/25 01:45:46;;;;;;;31.85;4.93;;;;;;;5.73;100.00;101854.91;4941649;28;20098;-78
2024/01/25 01:48:12;;;;;;;31.73;4.93;;;;;;;5.73;100.00;101865.53;4926634;28;20042;-76
2024/01/25 01:50:38;;;;;;;33.65;4.45;;;;;;;5.77;100.00;101878.41;4949159;28;20035;-75
2024/01/25 01:53:04;;;;;;;28.00;3.90;;;;;;;5.77;100.00;101883.75;4956643;28;20047;-78
2024/01/25 01:55:32;;;;;;;32.97;3.75;;;;;;;5.71;100.00;101888.84;4932577;28;20050;-76
2024/01/25 01:57:59;;;;;;;33.42;4.93;;;;;;;5.72;100.00;101898.47;4948853;28;20168;-77
2024/01/25 02:00:30;;;;;;;33.83;4.88;;;;;;;5.73;100.00;101897.44;4949506;28;20042;-79
2024/01/25 02:02:59;;;;;;;31.92;4.38;;;;;;;5.72;100.00;101901.13;4930334;29;20053;-79
2024/01/25 02:05:25;;;;;;;35.35;4.65;;;;;;;5.70;100.00;101903.19;4950372;28;20138;-80
2024/01/25 02:07:52;;;;;;;30.92;3.70;;;;;;;5.73;100.00;101902.75;4951007;28;20538;-79
2024/01/25 02:10:18;;;;;;;30.85;4.03;;;;;;;5.73;100.00;101908.06;4951059;28;20138;-81
2024/01/25 02:12:44;;;;;;;36.22;4.80;;;;;;;5.74;100.00;101909.69;4930069;28;20492;-79
2024/01/25 02:15:10;;;;;;;30.73;4.10;;;;;;;5.77;100.00;101891.72;4942325;28;20054;-80
2024/01/25 02:17:36;;;;;;;30.17;3.92;;;;;;;5.79;100.00;101901.09;4929709;28;20827;-77
2024/01/25 02:20:03;;;;;;;35.17;4.80;;;;;;;5.76;100.00;101912.16;4966106;28;20460;-80
2024/01/25 02:22:29;;;;;;;29.77;4.70;;;;;;;5.78;100.00;101910.09;4947986;28;20516;-79
2024/01/25 02:24:55;;;;;;;26.98;4.60;;;;;;;5.78;100.00;101911.94;4945352;28;20053;-79
2024/01/25 02:27:22;;;;;;;29.38;5.05;;;;;;;5.78;100.00;101925.25;4950293;28;20072;-79
2024/01/25 02:29:47;;;;;;;30.35;4.45;;;;;;;5.80;100.00;101924.00;4930346;29;20046;-78
2024/01/25 02:32:13;;;;;;;30.95;4.93;;;;;;;5.81;100.00;101919.50;4931295;28;20031;-78
2024/01/25 02:34:39;;;;;;;33.88;4.40;;;;;;;5.81;100.00;101925.63;4933008;28;20047;-79
2024/01/25 02:37:06;;;;;;;30.65;3.97;;;;;;;5.81;100.00;101919.50;4934494;28;20839;-80
2024/01/25 02:39:32;;;;;;;32.90;4.25;;;;;;;5.82;100.00;101927.25;4945158;28;20035;-79
2024/01/25 02:41:57;;;;;;;35.58;4.95;;;;;;;5.84;100.00;101924.41;4933845;29;20042;-78
2024/01/25 02:44:23;;;;;;;26.15;3.95;;;;;;;5.85;100.00;101916.22;4950669;28;20035;-76
2024/01/25 02:46:49;;;;;;;33.22;4.05;;;;;;;5.85;100.00;101920.72;4947399;28;20043;-81
2024/01/25 02:49:14;;;;;;;39.45;5.10;;;;;;;5.83;100.00;101912.97;4946494;28;20488;-82
2024/01/25 02:51:41;;;;;;;29.33;4.20;;;;;;;5.85;100.00;101915.41;4949343;28;20038;-80
2024/01/25 02:54:07;;;;;;;22.40;3.42;;;;;;;5.85;100.00;101926.84;4929263;28;20126;-81
2024/01/25 02:56:34;;;;;;;32.63;4.90;;;;;;;5.84;100.00;101922.56;4946100;28;20028;-78
2024/01/25 02:59:01;;;;;;;34.75;3.83;;;;;;;5.84;100.00;101930.53;4946059;28;20049;-78
2024/01/25 03:01:27;;;;;;;;;;;;;;;5.84;100.00;101941.16;4945488;28;20035;-78
2024/01/25 03:03:53;;;;;;;24.48;3.90;;;;;;;5.86;100.00;101932.97;4947659;28;19961;-81
2024/01/25 03:06:19;;;;;;;32.67;4.75;;;;;;;5.85;100.00;101947.31;4944323;28;20059;-80
2024/01/25 03:08:45;;;;;;;34.50;4.00;;;;;;;5.86;100.00;101954.25;4944034;28;20085;-78
2024/01/25 03:11:11;;;;;;;29.40;3.80;;;;;;;5.85;100.00;101944.66;4932158;28;20404;-82
2024/01/25 03:13:36;;;;;;;27.05;4.07;;;;;;;5.86;100.00;101954.25;4929667;29;20035;-79
2024/01/25 03:16:02;;;;;;;28.05;3.47;;;;;;;5.85;100.00;101964.06;4951388;28;20037;-78
2024/01/25 03:18:28;;;;;;;;;;;;;;;5.87;100.00;101963.84;4945506;28;20043;-80
2024/01/25 03:20:54;;;;;;;30.80;4.32;;;;;;;5.87;100.00;101971.81;4929225;29;19966;-79
2024/01/25 03:23:19;;;;;;;35.17;4.28;;;;;;;5.86;100.00;101970.19;4932145;28;20390;-78
2024/01/25 03:25:45;;;;;;;25.60;3.95;;;;;;;5.90;100.00;101974.09;4946513;28;20776;-78
2024/01/25 03:28:13;;;;;;;41.65;4.45;;;;;;;5.88;100.00;101968.13;4943615;28;20392;-79
2024/01/25 03:30:38;;;;;;;25.35;3.90;;;;;;;5.85;100.00;101969.38;4932684;28;20041;-80
2024/01/25 03:33:04;;;;;;;24.70;4.00;;;;;;;5.88;100.00;101968.13;4932818;29;20043;-79
2024/01/25 03:35:30;;;;;;;28.05;4.72;;;;;;;5.89;100.00;101967.13;4954939;28;20082;-78
2024/01/25 03:37:56;;;;;;;29.17;5.10;;;;;;;5.88;100.00;101990.22;4938029;29;20046;-81
2024/01/25 03:40:22;;;;;;;26.88;4.25;;;;;;;5.90;100.00;101985.53;4964863;28;20046;-77
2024/01/25 03:42:48;;;;;;;33.75;4.20;;;;;;;5.88;100.00;101984.09;4944980;28;20039;-80
2024/01/25 03:45:14;;;;;;;36.17;4.22;;;;;;;5.87;100.00;101990.44;4930693;28;20042;-81
2024/01/25 03:47:40;;;;;;;27.55;4.18;;;;;;;5.85;100.00;101992.50;4940624;28;20412;-79
2024/01/25 03:50:06;;;;;;;25.05;3.67;;;;;;;5.87;100.00;101990.44;4946570;28;20043;-79
2024/01/25 03:52:31;;;;;;;;;;;;;;;5.88;100.00;102000.03;4929504;28;20654;-79
2024/01/25 03:54:57;;;;;;;26.27;3.50;;;;;;;5.87;100.00;102014.38;4950549;28;19948;-79
2024/01/25 03:57:23;;;;;;;24.63;4.13;;;;;;;5.86;100.00;102023.38;4931275;28;20039;-80
2024/01/25 03:59:48;;;;;;;33.88;4.60;;;;;;;5.85;100.00;102035.84;4953306;28;20039;-80
2024/01/25 04:02:14;;;;;;;30.17;4.13;;;;;;;5.87;100.00;102027.66;4950201;28;20559;-80
2024/01/25 04:04:40;;;;;;;32.53;4.25;;;;;;;5.85;100.00;102035.03;4951217;28;20068;-80
2024/01/25 04:07:05;;;;;;;27.83;3.65;;;;;;;5.85;100.00;102045.66;4932083;29;20106;-80
2024/01/25 04:09:31;;;;;;;33.63;4.68;;;;;;;5.87;100.00;102041.78;4932580;28;20073;-78
2024/01/25 04:11:56;;;;;;;33.20;4.13;;;;;;;5.85;100.00;102040.34;4934167;29;20146;-81
2024/01/25 04:14:22;;;;;;;27.67;4.18;;;;;;;5.86;100.00;102049.97;4942085;28;20496;-79
2024/01/25 04:16:49;;;;;;;25.33;3.80;;;;;;;5.92;100.00;102049.16;4949701;28;20512;-79
2024/01/25 04:19:15;;;;;;;37.60;5.35;;;;;;;5.96;100.00;102050.38;4959825;28;20070;-79
2024/01/25 04:21:41;;;;;;;37.25;5.03;;;;;;;5.99;100.00;102052.63;4942209;28;20086;-80
2024/01/25 04:24:06;;;;;;;29.98;4.63;;;;;;;5.98;100.00;102049.16;4945749;28;20090;-80
2024/01/25 04:26:32;;;;;;;20.40;3.63;;;;;;;6.01;100.00;102058.56;4951323;28;20062;-79
2024/01/25 04:28:58;;;;;;;28.08;3.58;;;;;;;6.02;100.00;102062.84;4942136;28;20031;-81
2024/01/25 04:31:24;;;;;;;31.08;4.47;;;;;;;5.99;100.00;102071.25;4957525;28;20047;-79
2024/01/25 04:33:50;;;;;;;34.90;3.88;;;;;;;6.01;100.00;102077.16;4956332;28;20535;-80
2024/01/25 04:36:15;;;;;;;25.65;3.95;;;;;;;6.02;100.00;102087.59;4948384;28;20204;-80
2024/01/25 04:38:41;;;;;;;28.92;3.72;;;;;;;6.01;100.00;102069.19;4935899;28;20038;-79
2024/01/25 04:41:07;;;;;;;27.20;4.10;;;;;;;6.02;100.00;102081.47;4931676;29;20036;-80
2024/01/25 04:43:38;;;;;;;25.02;3.40;;;;;;;5.99;100.00;102076.56;4932697;28;20887;-80
2024/01/25 04:46:04;;;;;;;31.45;3.75;;;;;;;5.97;100.00;102094.56;4938636;28;20042;-79
2024/01/25 04:48:31;;;;;;;24.08;3.78;;;;;;;5.96;100.00;102077.81;4961124;28;20134;-78
2024/01/25 04:50:58;;;;;;;29.63;4.43;;;;;;;5.97;100.00;102083.94;4944155;28;20035;-80
2024/01/25 04:53:24;;;;;;;31.00;4.45;;;;;;;5.99;100.00;102090.69;4949369;28;20047;-79
2024/01/25 04:55:50;;;;;;;23.33;3.35;;;;;;;6.01;100.00;102095.78;4950841;28;20582;-80
2024/01/25 04:58:15;;;;;;;24.98;3.67;;;;;;;6.00;100.00;102080.84;4929281;28;20035;-79
2024/01/25 05:00:41;;;;;;;26.20;4.70;;;;;;;5.97;100.00;102083.94;4953865;28;20035;-79
2024/01/25 05:03:07;;;;;;;31.20;4.43;;;;;;;5.99;100.00;102097.84;4950132;28;20035;-77
2024/01/25 05:05:33;;;;;;;22.70;4.18;;;;;;;5.98;100.00;102096.22;4932844;28;20042;-79
2024/01/25 05:08:00;;;;;;;23.98;3.47;;;;;;;5.96;100.00;102095.56;4949536;28;20464;-78
2024/01/25 05:10:26;;;;;;;25.63;3.67;;;;;;;5.99;100.00;102097.84;4945514;28;20067;-79
2024/01/25 05:12:52;;;;;;;29.73;4.00;;;;;;;5.96;100.00;102088.44;4946528;28;20505;-77
2024/01/25 05:15:18;;;;;;;19.98;4.03;;;;;;;5.93;100.00;102096.00;4935258;28;20142;-76
2024/01/25 05:17:43;;;;;;;24.65;3.50;;;;;;;5.94;100.00;102110.94;4940443;28;20027;-78
2024/01/25 05:20:09;;;;;;;29.38;5.07;;;;;;;5.89;100.00;102113.34;4950701;28;20078;-80
2024/01/25 05:22:40;;;;;;;23.27;3.25;;;;;;;5.87;100.00;102116.22;4932041;28;20594;-80
2024/01/25 05:25:06;;;;;;;29.00;3.70;;;;;;;5.85;100.00;102128.91;4938915;28;20043;-82
2024/01/25 05:27:32;;;;;;;27.42;3.85;;;;;;;5.85;100.00;102133.41;4957882;28;20031;-80
2024/01/25 05:29:58;;;;;;;27.20;3.88;;;;;;;5.85;100.00;102126.25;4946737;28;20041;-81
2024/01/25 05:32:25;;;;;;;26.17;3.42;;;;;;;5.86;100.00;102114.59;4939886;28;20035;-78
2024/01/25 05:34:50;;;;;;;29.80;4.18;;;;;;;5.87;100.00;102134.00;4953642;28;20606;-78
2024/01/25 05:37:16;;;;;;;31.20;4.70;;;;;;;5.87;100.00;102131.34;4927629;28;20035;-81
2024/01/25 05:39:41;;;;;;;24.23;3.70;;;;;;;5.85;100.00;102128.09;4934458;28;20026;-78
2024/01/25 05:42:08;;;;;;;25.23;3.92;;;;;;;5.83;100.00;102122.16;4948906;28;20043;-80
2024/01/25 05:44:34;;;;;;;22.08;3.60;;;;;;;5.80;100.00;102119.91;4914735;28;20043;-79
2024/01/25 05:47:00;;;;;;;29.38;3.63;;;;;;;5.79;100.00;102134.22;4947297;28;20571;-77
2024/01/25 05:49:25;;;;;;;20.88;2.85;;;;;;;5.79;100.00;102136.88;4933346;28;20767;-83
2024/01/25 05:51:51;;;;;;;29.00;3.42;;;;;;;5.81;100.00;102150.78;4950248;28;20026;-79
2024/01/25 05:54:17;;;;;;;26.77;4.28;;;;;;;5.83;100.00;102143.44;4906632;28;20342;-78
2024/01/25 05:56:43;;;;;;;28.60;3.83;;;;;;;5.84;100.00;102158.38;4950706;28;20039;-81
2024/01/25 05:59:08;;;;;;;30.35;3.40;;;;;;;5.79;100.00;102155.47;4929844;29;20194;-80
2024/01/25 06:01:34;;;;;;;25.98;4.15;;;;;;;5.80;100.00;102157.13;4949791;28;20039;-78
2024/01/25 06:04:00;;;;;;;22.23;3.28;;;;;;;5.80;100.00;102157.13;4947699;28;20039;-82
2024/01/25 06:06:25;;;;;;;29.67;3.85;;;;;;;5.79;100.00;102171.44;4946721;28;20048;-78
2024/01/25 06:08:51;;;;;;;21.80;3.30;;;;;;;5.80;100.00;102178.38;4942413;28;20037;-80
2024/01/25 06:11:17;;;;;;;23.80;3.40;;;;;;;5.80;100.00;102173.88;4949082;28;20544;-80
2024/01/25 06:13:44;;;;;;;25.27;4.70;;;;;;;5.80;100.00;102167.75;4947299;28;20031;-82
2024/01/25 06:16:10;;;;;;;28.05;3.72;;;;;;;5.81;100.00;102177.34;4950463;28;20121;-79
2024/01/25 06:18:35;;;;;;;25.50;4.32;;;;;;;5.79;100.00;102177.56;4954698;28;21937;-79
2024/01/25 06:21:01;;;;;;;27.50;3.95;;;;;;;5.79;100.00;102187.38;4946718;28;20508;-79
2024/01/25 06:23:27;;;;;;;26.92;4.00;;;;;;;5.79;100.00;102190.84;4952763;28;20069;-78
2024/01/25 06:25:53;;;;;;;36.97;4.80;;;;;;;5.81;100.00;102203.94;4956013;28;20026;-79
2024/01/25 06:28:19;;;;;;;37.33;4.80;;;;;;;5.81;100.00;102198.63;4932370;29;20043;-80
2024/01/25 06:30:45;;;;;;;26.90;4.95;;;;;;;5.80;100.00;102200.47;4952747;28;20035;-78
2024/01/25 06:33:10;;;;;;;29.00;3.70;;;;;;;5.81;100.00;102206.59;4951279;28;20097;-79
2024/01/25 06:35:38;;;;;;;33.67;3.80;;;;;;;5.80;100.00;102208.44;4948270;28;20081;-80
2024/01/25 06:38:03;;;;;;;24.92;3.40;;;;;;;5.80;100.00;102218.25;4949187;28;20043;-80
2024/01/25 06:40:29;;;;;;;24.40;4.05;;;;;;;5.77;100.00;102216.84;4943805;28;20519;-79
2024/01/25 06:42:55;;;;;;;26.90;3.70;;;;;;;5.77;100.00;102216.84;4953972;28;20051;-80
2024/01/25 06:45:21;;;;;;;28.92;4.15;;;;;;;5.80;100.00;102223.56;4931553;28;20043;-79
2024/01/25 06:47:47;;;;;;;27.85;3.50;;;;;;;5.78;100.00;102215.81;4942913;28;20070;-81
2024/01/25 06:50:13;;;;;;;24.63;3.42;;;;;;;5.77;100.00;102230.13;4948537;28;20034;-80
2024/01/25 06:52:38;;;;;;;30.17;3.67;;;;;;;5.77;100.00;102226.66;4947394;28;20032;-79
2024/01/25 06:55:04;;;;;;;30.80;4.18;;;;;;;5.78;100.00;102230.94;4938064;28;20035;-78
2024/01/25 06:57:30;;;;;;;30.20;3.85;;;;;;;5.79;100.00;102236.06;4952769;28;20535;-79
2024/01/25 06:59:56;;;;;;;25.02;3.83;;;;;;;5.79;100.00;102252.00;4954014;28;20035;-80
2024/01/25 07:02:21;;;;;;;25.55;3.72;;;;;;;5.80;100.00;102258.13;4936800;28;20062;-81
2024/01/25 07:04:47;;;;;;;27.30;3.63;;;;;;;5.82;100.00;102267.53;4930939;29;20045;-80
2024/01/25 07:07:13;;;;;;;29.33;3.17;;;;;;;5.82;100.00;102272.84;4935265;29;20039;-80
2024/01/25 07:09:39;;;;;;;23.45;3.17;;;;;;;5.82;100.00;102277.34;4956807;28;20043;-79
2024/01/25 07:12:06;;;;;;;20.48;3.08;;;;;;;5.79;100.00;102272.47;4954571;28;20047;-81
2024/01/25 07:14:31;;;;;;;29.73;3.55;;;;;;;5.77;100.00;102274.50;4952505;28;20038;-80
2024/01/25 07:16:57;;;;;;;29.88;3.75;;;;;;;5.75;100.00;102280.81;4950486;28;20035;-79
2024/01/25 07:19:23;;;;;;;31.80;4.03;;;;;;;5.73;100.00;102290.84;4953281;28;20059;-81
2024/01/25 07:21:49;;;;;;;31.30;4.05;;;;;;;5.73;100.00;102280.22;4952909;28;20035;-81
2024/01/25 07:24:15;;;;;;;25.98;3.50;;;;;;;5.74;100.00;102289.81;4952628;28;20758;-81
2024/01/25 07:26:41;;;;;;;30.02;3.95;;;;;;;5.75;100.00;102291.44;4963584;28;20493;-81
2024/01/25 07:29:06;;;;;;;27.42;4.32;;;;;;;5.72;100.00;102277.75;4958789;28;20046;-77
2024/01/25 07:31:32;;;;;;;26.65;3.20;;;;;;;5.71;100.00;102287.56;4932868;28;20763;-81
2024/01/25 07:33:57;;;;;;;26.67;3.22;;;;;;;5.73;100.00;102282.88;4949112;28;20039;-79
2024/01/25 07:36:23;;;;;;;27.33;3.70;;;;;;;5.73;100.00;102290.84;4947944;28;20043;-80
2024/01/25 07:38:49;;;;;;;28.38;3.83;;;;;;;5.73;100.00;102290.03;4916808;29;20039;-79
2024/01/25 07:41:15;;;;;;;29.70;3.55;;;;;;;5.70;100.00;102291.25;4944502;28;20070;-81
2024/01/25 07:43:42;;;;;;;27.80;3.55;;;;;;;5.73;100.00;102311.28;4951661;28;20110;-79
2024/01/25 07:46:10;;;;;;;26.27;3.53;;;;;;;5.70;100.00;102306.38;4954506;28;20043;-81
2024/01/25 07:48:37;;;;;;;28.35;4.10;;;;;;;5.69;100.00;102310.03;4932662;28;20036;-80
2024/01/25 07:51:04;;;;;;;22.00;3.13;;;;;;;5.71;100.00;102303.53;4934569;29;20035;-80
2024/01/25 07:53:30;;;;;;;26.45;3.38;;;;;;;5.74;100.00;102307.59;4962364;28;20504;-80
2024/01/25 07:55:55;;;;;;;24.98;4.05;;;;;;;5.75;100.00;102309.25;4947906;28;20047;-79
2024/01/25 07:58:21;;;;;;;30.02;3.83;;;;;;;5.79;100.00;102315.81;4949585;28;20039;-80
2024/01/25 08:00:47;;;;;;;23.63;3.55;;;;;;;5.75;100.00;102302.09;4950988;28;20031;-80
2024/01/25 08:03:12;;;;;;;22.63;4.45;;;;;;;5.77;100.00;102301.09;4933272;29;20050;-80
2024/01/25 08:05:38;;;;;;;25.98;3.35;;;;;;;5.75;100.00;102302.09;4935190;28;20040;-84
2024/01/25 08:08:03;;;;;;;24.83;3.42;;;;;;;5.81;100.00;102320.91;4966285;28;20039;-79
2024/01/25 08:10:29;;;;;;;24.83;3.85;;;;;;;5.81;100.00;102319.09;4955594;28;20046;-79
2024/01/25 08:12:58;;;;;;;28.10;4.72;;;;;;;5.84;100.00;102312.56;4960416;28;20038;-80
2024/01/25 08:15:24;;;;;;;30.65;3.72;;;;;;;5.87;100.00;102317.47;4943860;28;20438;-79
2024/01/25 08:17:50;;;;;;;21.63;3.42;;;;;;;5.88;100.00;102325.25;4950658;28;20073;-79
2024/01/25 08:20:16;;;;;;;29.30;3.72;;;;;;;5.90;100.00;102325.06;4953991;28;20039;-78
2024/01/25 08:22:42;;;;;;;36.40;3.38;;;;;;;5.89;100.00;102326.06;4954672;28;20032;-80
2024/01/25 08:25:08;;;;;;;28.42;4.63;;;;;;;5.90;100.00;102319.75;4944120;28;20114;-79
2024/01/25 08:27:34;;;;;;;20.98;3.45;;;;;;;5.90;100.00;102322.41;4945141;28;20039;-79
2024/01/25 08:29:59;;;;;;;21.58;3.70;;;;;;;5.90;100.00;102320.56;4953909;28;20049;-78
2024/01/25 08:32:25;;;;;;;31.80;3.75;;;;;;;5.94;100.00;102328.97;4941394;28;20537;-80
2024/01/25 08:34:51;;;;;;;22.15;3.75;;;;;;;5.93;100.00;102327.34;4944396;28;20050;-79
2024/01/25 08:37:17;;;;;;;29.17;3.60;;;;;;;5.94;100.00;102323.66;4950199;28;20035;-79
2024/01/25 08:39:45;;;;;;;33.15;4.38;;;;;;;5.95;100.00;102330.59;4928790;28;20035;-80
2024/01/25 08:42:12;;;;;;;27.50;3.47;;;;;;;5.95;100.00;102331.44;4933653;29;20047;-80
2024/01/25 08:44:56;;;;;;;28.92;4.60;;;;;;;5.99;100.00;102345.16;4945870;28;20058;-81
2024/01/25 08:47:41;;;;;;;25.42;3.75;;;;;;;5.98;100.00;102341.69;4946750;28;20042;-78
2024/01/25 08:50:11;;;;;;;24.88;3.88;;;;;;;6.01;100.00;102351.09;4920921;28;20378;-77
2024/01/25 08:52:37;;;;;;;22.48;2.88;;;;;;;6.04;100.00;102345.38;4915406;28;20069;-76
2024/01/25 08:55:06;;;;;;;29.73;3.90;;;;;;;6.04;100.00;102342.72;4948867;28;20058;-80
2024/01/25 08:57:33;;;;;;;24.35;3.72;;;;;;;6.06;100.00;102351.31;4936194;28;20051;-79
2024/01/25 09:00:00;;;;;;;28.20;3.88;;;;;;;6.10;100.00;102357.06;4897247;28;1201122;-78
2024/01/25 09:02:28;;;;;;;26.88;3.55;;;;;;;6.08;100.00;102367.06;4946560;28;20071;-79
2024/01/25 09:04:55;;;;;;;24.05;3.25;;;;;;;6.08;100.00;102349.28;4933763;28;20035;-79
2024/01/25 09:07:22;;;;;;;22.80;3.25;;;;;;;6.09;100.00;102358.88;4951194;28;20044;-79
2024/01/25 09:09:48;;;;;;;29.70;4.53;;;;;;;6.08;100.00;102356.44;4957406;28;20094;-80
2024/01/25 09:12:15;;;;;;;23.98;3.55;;;;;;;6.12;100.00;102355.03;4930450;29;20039;-79
2024/01/25 09:14:41;;;;;;;26.23;3.10;;;;;;;6.13;100.00;102365.47;4933280;28;20102;-82
2024/01/25 09:17:07;;;;;;;29.20;5.38;;;;;;;6.14;100.00;102372.41;4949263;28;20039;-81
2024/01/25 09:19:34;;;;;;;22.48;3.50;;;;;;;6.17;100.00;102372.03;4937378;28;20130;-81
2024/01/25 09:22:01;;;;;;;23.63;3.53;;;;;;;6.19;100.00;102385.94;4952995;28;20039;-79
2024/01/25 09:24:26;;;;;;;25.52;3.20;;;;;;;6.20;100.00;102376.94;4948198;28;20130;-80
2024/01/25 09:26:52;;;;;;;20.52;3.53;;;;;;;6.25;100.00;102371.03;4936397;28;20114;-81
2024/01/25 09:29:18;;;;;;;31.77;3.85;;;;;;;6.28;100.00;102378.59;4915677;29;20051;-81
2024/01/25 09:31:44;;;;;;;29.48;4.45;;;;;;;6.33;100.00;102385.97;4954441;28;20747;-80
2024/01/25 09:34:10;;;;;;;19.67;3.88;;;;;;;6.32;100.00;102392.31;4944162;28;20046;-80
2024/01/25 09:36:37;;;;;;;21.77;3.40;;;;;;;6.33;100.00;102391.31;4946933;28;20031;-80
2024/01/25 09:39:04;;;;;;;26.92;3.35;;;;;;;6.35;100.00;102399.91;4933618;29;20046;-81
2024/01/25 09:41:29;;;;;;;24.35;3.35;;;;;;;6.36;100.00;102398.88;4947282;28;20416;-80
2024/01/25 09:43:55;;;;;;;25.40;4.57;;;;;;;6.37;100.00;102408.50;4958066;28;20504;-81
2024/01/25 09:46:21;;;;;;;25.83;3.63;;;;;;;6.41;100.00;102412.41;4948241;28;20150;-81
2024/01/25 09:48:47;;;;;;;23.10;3.03;;;;;;;6.41;100.00;102410.56;4947572;28;20042;-79
2024/01/25 09:51:13;;;;;;;24.15;3.75;;;;;;;6.43;100.00;102413.81;4929574;28;20527;-79
2024/01/25 09:53:41;;;;;;;22.63;3.38;;;;;;;6.43;100.00;102413.00;4938714;28;20715;-79
2024/01/25 09:56:08;;;;;;;23.10;3.17;;;;;;;6.47;100.00;102423.06;4950043;28;20078;-78
2024/01/25 09:58:45;;;;;;;23.23;3.75;;;;;;;6.49;100.00;102428.19;4950495;28;20070;-78
2024/01/25 10:01:13;;;;;;;19.05;3.83;;;;;;;6.50;100.00;102435.13;4931115;28;20039;-80
2024/01/25 10:03:42;;;;;;;25.42;3.97;;;;;;;6.50;100.00;102441.31;4942626;28;20023;-79
2024/01/25 10:06:08;;;;;;;21.77;3.03;;;;;;;6.48;100.00;102438.00;4930365;29;20066;-82
2024/01/25 10:08:34;;;;;;;25.30;3.40;;;;;;;6.51;100.00;102442.13;4949754;28;20035;-79
2024/01/25 10:11:00;;;;;;;22.65;3.10;;;;;;;6.51;100.00;102442.94;4947302;28;20456;-79
2024/01/25 10:13:29;;;;;;;;;;;;;;;6.53;100.00;102450.72;4947485;28;20783;-79
2024/01/25 10:15:56;;;;;;;22.15;2.70;;;;;;;6.52;100.00;102449.09;4962284;28;19928;-80
2024/01/25 10:18:22;;;;;;;;;;;;;;;6.53;100.00;102440.91;4946342;28;20047;-79
2024/01/25 10:20:48;;;;;;;29.05;3.80;;;;;;;6.54;100.00;102447.03;4927543;28;19918;-79
2024/01/25 10:23:14;;;;;;;;;;;;;;;6.53;100.00;102443.56;4931977;29;20043;-79
2024/01/25 10:25:40;;;;;;;18.73;2.85;;;;;;;6.53;100.00;102450.72;4947688;28;19929;-80
2024/01/25 10:28:06;;;;;;;24.30;3.60;;;;;;;6.51;100.00;102464.25;4955632;28;20122;-81
2024/01/25 10:30:34;;;;;;;19.88;3.20;;;;;;;6.51;100.00;102463.41;4940518;28;20048;-82
2024/01/25 10:33:01;;;;;;;20.45;3.30;;;;;;;6.55;100.00;102462.81;4945440;28;20042;-76
2024/01/25 10:35:27;;;;;;;20.80;3.60;;;;;;;6.55;100.00;102469.97;4941062;28;20123;-79
2024/01/25 10:37:54;;;;;;;;;;;;;;;6.52;100.00;102459.72;4947881;28;20505;-73
2024/01/25 10:40:22;;;;;;;22.38;2.92;;;;;;;6.54;100.00;102461.16;4940225;28;20428;-83
2024/01/25 10:42:48;;;;;;;23.35;3.63;;;;;;;6.55;100.00;102454.00;4917610;28;20576;-81
2024/01/25 10:45:14;;;;;;;27.10;3.83;;;;;;;6.54;100.00;102447.03;4913056;29;20126;-76
2024/01/25 10:47:44;;;;;;;26.75;3.67;;;;;;;6.54;100.00;102453.19;4945744;28;20536;-77
2024/01/25 10:50:13;;;;;;;21.52;2.63;;;;;;;6.57;100.00;102447.47;4948634;28;20520;-75
2024/01/25 10:52:41;;;;;;;22.75;3.17;;;;;;;6.60;100.00;102445.41;4932123;28;20043;-74
2024/01/25 10:55:08;;;;;;;27.58;3.42;;;;;;;6.62;100.00;102441.53;4944726;28;20072;-74
2024/01/25 10:57:42;;;;;;;21.83;3.10;;;;;;;6.63;100.00;102451.16;4957735;28;20741;-75
2024/01/25 11:00:14;;;;;;;15.80;2.70;;;;;;;6.64;100.00;102450.16;4946173;28;20046;-74
2024/01/25 11:02:40;;;;;;;26.85;3.97;;;;;;;6.67;100.00;102456.91;4942726;28;20042;-74
2024/01/25 11:05:14;;;;;;;19.52;2.63;;;;;;;6.68;100.00;102446.03;4942173;28;20121;-73
2024/01/25 11:07:45;;;;;;;23.02;3.83;;;;;;;6.68;100.00;102448.69;4944258;28;20044;-73
2024/01/25 11:10:16;;;;;;;21.88;3.20;;;;;;;6.67;100.00;102457.72;4947503;28;20140;-75
2024/01/25 11:12:55;;;;;;;27.52;3.47;;;;;;;6.69;100.00;102453.00;4957581;28;20925;-74
2024/01/25 11:15:23;;;;;;;27.92;2.83;;;;;;;6.69;100.00;102453.00;4913472;29;20697;-75